sensor_id;sensor_type;location;lat;lon;timestamp;P1;durP1;ratioP1;P2;durP2;ratioP2
20589;SDS011;10453;50.810;12.540;2024-01-10T00:02:35;109.78;;;42.58;;
20589;SDS011;10453;50.810;12.540;2024-01-10T00:06:52;109.90;;;39.83;;
20589;SDS011;10453;50.810;12.540;2024-01-10T00:11:10;108.65;;;39.88;;
20589;SDS011;10453;50.810;12.540;2024-01-10T00:15:29;98.90;;;38.20;;
20589;SDS011;10453;50.810;12.540;2024-01-10T00:19:47;109.45;;;38.40;;
20589;SDS011;10453;50.810;12.540;2024-01-10T00:24:05;106.70;;;37.97;;
20589;SDS011;10453;50.810;12.540;2024-01-10T00:28:22;117.05;;;40.47;;
20589;SDS011;10453;50.810;12.540;2024-01-10T00:32:40;108.88;;;39.67;;
20589;SDS011;10453;50.810;12.540;2024-01-10T00:36:58;109.63;;;40.17;;
20589;SDS011;10453;50.810;12.540;2024-01-10T00:41:16;108.85;;;38.67;;
20589;SDS011;10453;50.810;12.540;2024-01-10T00:45:34;101.70;;;38.10;;
20589;SDS011;10453;50.810;12.540;2024-01-10T00:49:52;107.57;;;39.80;;
20589;SDS011;10453;50.810;12.540;2024-01-10T00:54:11;113.88;;;41.10;;
20589;SDS011;10453;50.810;12.540;2024-01-10T00:58:28;100.05;;;39.70;;
20589;SDS011;10453;50.810;12.540;2024-01-10T01:02:47;115.13;;;41.45;;
20589;SDS011;10453;50.810;12.540;2024-01-10T01:07:04;108.13;;;39.10;;
20589;SDS011;10453;50.810;12.540;2024-01-10T01:11:22;111.25;;;40.03;;
20589;SDS011;10453;50.810;12.540;2024-01-10T01:15:41;108.78;;;40.13;;
20589;SDS011;10453;50.810;12.540;2024-01-10T01:19:59;105.90;;;39.92;;
20589;SDS011;10453;50.810;12.540;2024-01-10T01:24:17;118.30;;;39.67;;
20589;SDS011;10453;50.810;12.540;2024-01-10T01:28:35;101.35;;;38.15;;
20589;SDS011;10453;50.810;12.540;2024-01-10T01:32:53;102.80;;;38.30;;
20589;SDS011;10453;50.810;12.540;2024-01-10T01:37:11;104.55;;;39.47;;
20589;SDS011;10453;50.810;12.540;2024-01-10T01:41:29;101.65;;;38.13;;
20589;SDS011;10453;50.810;12.540;2024-01-10T01:45:48;97.10;;;37.85;;
20589;SDS011;10453;50.810;12.540;2024-01-10T01:50:10;100.50;;;38.53;;
20589;SDS011;10453;50.810;12.540;2024-01-10T01:54:29;116.35;;;40.80;;
20589;SDS011;10453;50.810;12.540;2024-01-10T01:58:50;107.55;;;40.78;;
20589;SDS011;10453;50.810;12.540;2024-01-10T02:03:09;106.38;;;39.80;;
20589;SDS011;10453;50.810;12.540;2024-01-10T02:07:27;115.25;;;42.80;;
20589;SDS011;10453;50.810;12.540;2024-01-10T02:11:47;113.10;;;40.13;;
20589;SDS011;10453;50.810;12.540;2024-01-10T02:16:06;116.25;;;42.78;;
20589;SDS011;10453;50.810;12.540;2024-01-10T02:20:24;108.47;;;39.78;;
20589;SDS011;10453;50.810;12.540;2024-01-10T02:24:42;102.30;;;38.45;;
20589;SDS011;10453;50.810;12.540;2024-01-10T02:29:00;95.85;;;38.10;;
20589;SDS011;10453;50.810;12.540;2024-01-10T02:33:18;108.65;;;39.60;;
20589;SDS011;10453;50.810;12.540;2024-01-10T02:37:36;103.43;;;37.45;;
20589;SDS011;10453;50.810;12.540;2024-01-10T02:41:54;114.68;;;40.67;;
20589;SDS011;10453;50.810;12.540;2024-01-10T02:46:11;104.03;;;41.00;;
20589;SDS011;10453;50.810;12.540;2024-01-10T02:50:29;105.95;;;41.13;;
20589;SDS011;10453;50.810;12.540;2024-01-10T02:54:47;112.15;;;40.15;;
20589;SDS011;10453;50.810;12.540;2024-01-10T02:59:06;114.20;;;40.60;;
20589;SDS011;10453;50.810;12.540;2024-01-10T03:03:24;109.03;;;41.65;;
20589;SDS011;10453;50.810;12.540;2024-01-10T03:07:42;104.45;;;39.28;;
20589;SDS011;10453;50.810;12.540;2024-01-10T03:12:00;107.22;;;39.45;;
20589;SDS011;10453;50.810;12.540;2024-01-10T03:16:18;107.68;;;39.42;;
20589;SDS011;10453;50.810;12.540;2024-01-10T03:20:37;107.22;;;39.92;;
20589;SDS011;10453;50.810;12.540;2024-01-10T03:24:54;109.13;;;38.78;;
20589;SDS011;10453;50.810;12.540;2024-01-10T03:29:13;106.45;;;40.50;;
20589;SDS011;10453;50.810;12.540;2024-01-10T03:33:30;104.95;;;40.75;;
20589;SDS011;10453;50.810;12.540;2024-01-10T03:37:49;104.15;;;38.80;;
20589;SDS011;10453;50.810;12.540;2024-01-10T03:42:08;111.32;;;38.25;;
20589;SDS011;10453;50.810;12.540;2024-01-10T03:46:26;95.88;;;38.53;;
20589;SDS011;10453;50.810;12.540;2024-01-10T03:50:44;100.47;;;38.65;;
20589;SDS011;10453;50.810;12.540;2024-01-10T03:55:02;104.50;;;38.72;;
20589;SDS011;10453;50.810;12.540;2024-01-10T03:59:20;106.55;;;40.40;;
20589;SDS011;10453;50.810;12.540;2024-01-10T04:03:39;97.93;;;37.97;;
20589;SDS011;10453;50.810;12.540;2024-01-10T04:08:01;106.55;;;39.10;;
20589;SDS011;10453;50.810;12.540;2024-01-10T04:12:19;109.63;;;37.65;;
20589;SDS011;10453;50.810;12.540;2024-01-10T04:16:37;104.43;;;37.33;;
20589;SDS011;10453;50.810;12.540;2024-01-10T04:20:56;102.07;;;37.58;;
20589;SDS011;10453;50.810;12.540;2024-01-10T04:25:14;100.03;;;38.38;;
20589;SDS011;10453;50.810;12.540;2024-01-10T04:29:32;99.80;;;36.85;;
20589;SDS011;10453;50.810;12.540;2024-01-10T04:33:50;107.10;;;38.45;;
20589;SDS011;10453;50.810;12.540;2024-01-10T04:38:08;117.90;;;40.47;;
20589;SDS011;10453;50.810;12.540;2024-01-10T04:42:25;111.20;;;39.05;;
20589;SDS011;10453;50.810;12.540;2024-01-10T04:46:44;94.13;;;37.40;;
20589;SDS011;10453;50.810;12.540;2024-01-10T04:51:03;102.95;;;38.60;;
20589;SDS011;10453;50.810;12.540;2024-01-10T04:55:21;109.95;;;39.65;;
20589;SDS011;10453;50.810;12.540;2024-01-10T04:59:39;107.95;;;38.83;;
20589;SDS011;10453;50.810;12.540;2024-01-10T05:03:57;106.95;;;39.08;;
20589;SDS011;10453;50.810;12.540;2024-01-10T05:08:15;103.60;;;37.33;;
20589;SDS011;10453;50.810;12.540;2024-01-10T05:12:38;96.15;;;36.33;;
20589;SDS011;10453;50.810;12.540;2024-01-10T05:16:55;109.90;;;38.40;;
20589;SDS011;10453;50.810;12.540;2024-01-10T05:21:13;103.65;;;36.90;;
20589;SDS011;10453;50.810;12.540;2024-01-10T05:25:32;105.55;;;37.63;;
20589;SDS011;10453;50.810;12.540;2024-01-10T05:29:50;107.25;;;37.25;;
20589;SDS011;10453;50.810;12.540;2024-01-10T05:34:08;94.03;;;36.63;;
20589;SDS011;10453;50.810;12.540;2024-01-10T05:38:28;106.03;;;37.45;;
20589;SDS011;10453;50.810;12.540;2024-01-10T05:42:46;107.32;;;38.95;;
20589;SDS011;10453;50.810;12.540;2024-01-10T05:47:04;97.93;;;36.95;;
20589;SDS011;10453;50.810;12.540;2024-01-10T05:51:23;103.57;;;36.83;;
20589;SDS011;10453;50.810;12.540;2024-01-10T05:55:41;95.28;;;36.33;;
20589;SDS011;10453;50.810;12.540;2024-01-10T05:59:58;101.82;;;37.25;;
20589;SDS011;10453;50.810;12.540;2024-01-10T06:04:16;103.00;;;38.72;;
20589;SDS011;10453;50.810;12.540;2024-01-10T06:08:34;98.47;;;37.50;;
20589;SDS011;10453;50.810;12.540;2024-01-10T06:12:54;99.78;;;36.63;;
20589;SDS011;10453;50.810;12.540;2024-01-10T06:17:12;102.07;;;38.10;;
20589;SDS011;10453;50.810;12.540;2024-01-10T06:21:29;103.88;;;38.85;;
20589;SDS011;10453;50.810;12.540;2024-01-10T06:25:47;115.05;;;40.53;;
20589;SDS011;10453;50.810;12.540;2024-01-10T06:30:04;112.13;;;40.22;;
20589;SDS011;10453;50.810;12.540;2024-01-10T06:34:24;106.00;;;38.13;;
20589;SDS011;10453;50.810;12.540;2024-01-10T06:38:42;93.65;;;36.35;;
20589;SDS011;10453;50.810;12.540;2024-01-10T06:43:00;98.32;;;39.50;;
20589;SDS011;10453;50.810;12.540;2024-01-10T06:47:18;106.88;;;39.08;;
20589;SDS011;10453;50.810;12.540;2024-01-10T06:51:38;122.30;;;43.67;;
20589;SDS011;10453;50.810;12.540;2024-01-10T06:55:56;118.05;;;42.10;;
20589;SDS011;10453;50.810;12.540;2024-01-10T07:00:13;106.47;;;40.50;;
20589;SDS011;10453;50.810;12.540;2024-01-10T07:04:32;112.88;;;41.25;;
20589;SDS011;10453;50.810;12.540;2024-01-10T07:08:49;95.82;;;37.42;;
20589;SDS011;10453;50.810;12.540;2024-01-10T07:13:08;94.97;;;36.28;;
20589;SDS011;10453;50.810;12.540;2024-01-10T07:17:27;97.70;;;38.60;;
20589;SDS011;10453;50.810;12.540;2024-01-10T07:21:45;107.60;;;39.35;;
20589;SDS011;10453;50.810;12.540;2024-01-10T07:26:02;110.35;;;45.92;;
20589;SDS011;10453;50.810;12.540;2024-01-10T07:30:21;141.55;;;51.78;;
20589;SDS011;10453;50.810;12.540;2024-01-10T07:34:40;118.40;;;45.63;;
20589;SDS011;10453;50.810;12.540;2024-01-10T07:38:58;122.93;;;49.17;;
20589;SDS011;10453;50.810;12.540;2024-01-10T07:43:19;118.07;;;48.08;;
20589;SDS011;10453;50.810;12.540;2024-01-10T07:47:37;122.97;;;51.53;;
20589;SDS011;10453;50.810;12.540;2024-01-10T07:51:56;118.13;;;46.10;;
20589;SDS011;10453;50.810;12.540;2024-01-10T07:56:15;124.13;;;43.58;;
20589;SDS011;10453;50.810;12.540;2024-01-10T08:00:33;104.78;;;42.08;;
20589;SDS011;10453;50.810;12.540;2024-01-10T08:04:51;122.47;;;45.15;;
20589;SDS011;10453;50.810;12.540;2024-01-10T08:09:10;115.90;;;43.33;;
20589;SDS011;10453;50.810;12.540;2024-01-10T08:13:29;125.68;;;45.13;;
20589;SDS011;10453;50.810;12.540;2024-01-10T08:17:47;100.10;;;40.63;;
20589;SDS011;10453;50.810;12.540;2024-01-10T08:22:04;114.10;;;42.22;;
20589;SDS011;10453;50.810;12.540;2024-01-10T08:26:22;108.95;;;41.63;;
20589;SDS011;10453;50.810;12.540;2024-01-10T08:30:41;118.07;;;43.03;;
20589;SDS011;10453;50.810;12.540;2024-01-10T08:34:59;104.63;;;39.85;;
20589;SDS011;10453;50.810;12.540;2024-01-10T08:39:19;101.68;;;42.33;;
20589;SDS011;10453;50.810;12.540;2024-01-10T08:43:39;107.72;;;41.55;;
20589;SDS011;10453;50.810;12.540;2024-01-10T08:47:58;105.95;;;40.30;;
20589;SDS011;10453;50.810;12.540;2024-01-10T08:52:16;113.43;;;41.85;;
20589;SDS011;10453;50.810;12.540;2024-01-10T08:56:35;113.50;;;41.28;;
20589;SDS011;10453;50.810;12.540;2024-01-10T09:00:53;100.07;;;41.42;;
20589;SDS011;10453;50.810;12.540;2024-01-10T09:05:12;107.72;;;42.40;;
20589;SDS011;10453;50.810;12.540;2024-01-10T09:09:29;110.13;;;41.25;;
20589;SDS011;10453;50.810;12.540;2024-01-10T09:13:48;106.78;;;41.38;;
20589;SDS011;10453;50.810;12.540;2024-01-10T09:18:06;100.32;;;40.75;;
20589;SDS011;10453;50.810;12.540;2024-01-10T09:22:24;106.07;;;40.60;;
20589;SDS011;10453;50.810;12.540;2024-01-10T09:26:43;115.70;;;44.08;;
20589;SDS011;10453;50.810;12.540;2024-01-10T09:31:01;111.50;;;43.35;;
20589;SDS011;10453;50.810;12.540;2024-01-10T09:35:19;104.57;;;42.00;;
20589;SDS011;10453;50.810;12.540;2024-01-10T09:39:36;112.75;;;43.78;;
20589;SDS011;10453;50.810;12.540;2024-01-10T09:43:54;112.88;;;42.13;;
20589;SDS011;10453;50.810;12.540;2024-01-10T09:48:13;113.28;;;43.83;;
20589;SDS011;10453;50.810;12.540;2024-01-10T09:52:33;103.35;;;43.20;;
20589;SDS011;10453;50.810;12.540;2024-01-10T09:56:58;106.85;;;42.88;;
20589;SDS011;10453;50.810;12.540;2024-01-10T10:01:15;115.50;;;43.50;;
20589;SDS011;10453;50.810;12.540;2024-01-10T10:05:34;103.68;;;41.80;;
20589;SDS011;10453;50.810;12.540;2024-01-10T10:09:52;99.20;;;41.72;;
20589;SDS011;10453;50.810;12.540;2024-01-10T10:14:14;109.97;;;44.10;;
20589;SDS011;10453;50.810;12.540;2024-01-10T10:18:35;108.47;;;40.60;;
20589;SDS011;10453;50.810;12.540;2024-01-10T10:23:04;103.70;;;42.58;;
20589;SDS011;10453;50.810;12.540;2024-01-10T10:27:27;102.38;;;42.28;;
20589;SDS011;10453;50.810;12.540;2024-01-10T10:31:48;102.82;;;42.72;;
20589;SDS011;10453;50.810;12.540;2024-01-10T10:36:06;107.85;;;43.45;;
20589;SDS011;10453;50.810;12.540;2024-01-10T10:40:25;111.13;;;44.33;;
20589;SDS011;10453;50.810;12.540;2024-01-10T10:44:43;101.43;;;42.05;;
20589;SDS011;10453;50.810;12.540;2024-01-10T10:49:05;110.35;;;42.58;;
20589;SDS011;10453;50.810;12.540;2024-01-10T10:53:35;103.97;;;44.60;;
20589;SDS011;10453;50.810;12.540;2024-01-10T10:57:55;108.00;;;43.47;;
20589;SDS011;10453;50.810;12.540;2024-01-10T11:02:26;97.65;;;42.38;;
20589;SDS011;10453;50.810;12.540;2024-01-10T11:06:48;118.50;;;47.17;;
20589;SDS011;10453;50.810;12.540;2024-01-10T11:11:14;106.38;;;44.33;;
20589;SDS011;10453;50.810;12.540;2024-01-10T11:20:13;102.60;;;41.92;;
20589;SDS011;10453;50.810;12.540;2024-01-10T11:24:50;97.05;;;42.85;;
20589;SDS011;10453;50.810;12.540;2024-01-10T11:29:10;102.00;;;45.20;;
20589;SDS011;10453;50.810;12.540;2024-01-10T11:33:31;110.13;;;46.20;;
20589;SDS011;10453;50.810;12.540;2024-01-10T11:37:50;107.03;;;45.85;;
20589;SDS011;10453;50.810;12.540;2024-01-10T11:42:09;112.88;;;47.47;;
20589;SDS011;10453;50.810;12.540;2024-01-10T11:46:27;101.53;;;46.97;;
20589;SDS011;10453;50.810;12.540;2024-01-10T11:50:45;106.22;;;45.05;;
20589;SDS011;10453;50.810;12.540;2024-01-10T11:55:03;101.28;;;45.17;;
20589;SDS011;10453;50.810;12.540;2024-01-10T11:59:24;103.95;;;44.80;;
20589;SDS011;10453;50.810;12.540;2024-01-10T12:03:44;106.90;;;46.50;;
20589;SDS011;10453;50.810;12.540;2024-01-10T12:08:23;105.70;;;46.22;;
20589;SDS011;10453;50.810;12.540;2024-01-10T12:12:41;103.70;;;46.50;;
20589;SDS011;10453;50.810;12.540;2024-01-10T12:16:59;100.50;;;46.53;;
20589;SDS011;10453;50.810;12.540;2024-01-10T12:21:17;106.85;;;46.60;;
20589;SDS011;10453;50.810;12.540;2024-01-10T12:25:36;95.90;;;45.88;;
20589;SDS011;10453;50.810;12.540;2024-01-10T12:34:11;94.65;;;44.65;;
20589;SDS011;10453;50.810;12.540;2024-01-10T12:42:46;90.85;;;42.03;;
20589;SDS011;10453;50.810;12.540;2024-01-10T12:47:03;89.37;;;43.43;;
20589;SDS011;10453;50.810;12.540;2024-01-10T12:51:21;96.93;;;45.80;;
20589;SDS011;10453;50.810;12.540;2024-01-10T12:55:39;83.40;;;41.85;;
20589;SDS011;10453;50.810;12.540;2024-01-10T12:59:56;96.03;;;44.63;;
20589;SDS011;10453;50.810;12.540;2024-01-10T13:04:14;92.13;;;42.67;;
20589;SDS011;10453;50.810;12.540;2024-01-10T13:12:50;88.57;;;42.20;;
20589;SDS011;10453;50.810;12.540;2024-01-10T13:17:09;91.13;;;42.10;;
20589;SDS011;10453;50.810;12.540;2024-01-10T13:25:45;85.00;;;38.97;;
20589;SDS011;10453;50.810;12.540;2024-01-10T13:30:03;86.43;;;40.83;;
20589;SDS011;10453;50.810;12.540;2024-01-10T13:34:22;87.07;;;41.08;;
20589;SDS011;10453;50.810;12.540;2024-01-10T13:42:58;80.93;;;37.70;;
20589;SDS011;10453;50.810;12.540;2024-01-10T13:47:19;90.20;;;40.33;;
20589;SDS011;10453;50.810;12.540;2024-01-10T13:51:41;84.03;;;41.03;;
20589;SDS011;10453;50.810;12.540;2024-01-10T13:55:59;86.72;;;40.20;;
20589;SDS011;10453;50.810;12.540;2024-01-10T14:00:19;83.45;;;39.25;;
20589;SDS011;10453;50.810;12.540;2024-01-10T14:04:38;99.85;;;43.85;;
20589;SDS011;10453;50.810;12.540;2024-01-10T14:08:58;100.78;;;45.55;;
20589;SDS011;10453;50.810;12.540;2024-01-10T14:13:16;100.13;;;46.28;;
20589;SDS011;10453;50.810;12.540;2024-01-10T14:17:34;105.15;;;45.17;;
20589;SDS011;10453;50.810;12.540;2024-01-10T14:21:52;89.82;;;43.78;;
20589;SDS011;10453;50.810;12.540;2024-01-10T14:26:12;94.85;;;41.92;;
20589;SDS011;10453;50.810;12.540;2024-01-10T14:30:29;81.28;;;39.70;;
20589;SDS011;10453;50.810;12.540;2024-01-10T14:34:56;89.70;;;40.20;;
20589;SDS011;10453;50.810;12.540;2024-01-10T14:39:14;86.00;;;39.65;;
20589;SDS011;10453;50.810;12.540;2024-01-10T14:43:33;86.03;;;40.78;;
20589;SDS011;10453;50.810;12.540;2024-01-10T14:47:53;81.95;;;39.25;;
20589;SDS011;10453;50.810;12.540;2024-01-10T14:52:12;85.22;;;40.50;;
20589;SDS011;10453;50.810;12.540;2024-01-10T14:56:31;92.95;;;41.63;;
20589;SDS011;10453;50.810;12.540;2024-01-10T15:05:07;98.63;;;43.10;;
20589;SDS011;10453;50.810;12.540;2024-01-10T15:09:31;89.18;;;41.13;;
20589;SDS011;10453;50.810;12.540;2024-01-10T15:13:50;89.47;;;42.95;;
20589;SDS011;10453;50.810;12.540;2024-01-10T15:18:09;87.75;;;40.67;;
20589;SDS011;10453;50.810;12.540;2024-01-10T15:22:28;104.00;;;45.25;;
20589;SDS011;10453;50.810;12.540;2024-01-10T15:26:45;105.97;;;48.55;;
20589;SDS011;10453;50.810;12.540;2024-01-10T15:31:03;107.32;;;47.60;;
20589;SDS011;10453;50.810;12.540;2024-01-10T15:35:23;109.35;;;49.63;;
20589;SDS011;10453;50.810;12.540;2024-01-10T15:39:45;117.30;;;55.25;;
20589;SDS011;10453;50.810;12.540;2024-01-10T15:44:04;114.40;;;52.30;;
20589;SDS011;10453;50.810;12.540;2024-01-10T15:48:23;105.38;;;48.13;;
20589;SDS011;10453;50.810;12.540;2024-01-10T15:52:41;104.75;;;47.95;;
20589;SDS011;10453;50.810;12.540;2024-01-10T15:56:58;95.40;;;43.05;;
20589;SDS011;10453;50.810;12.540;2024-01-10T16:01:17;96.45;;;44.35;;
20589;SDS011;10453;50.810;12.540;2024-01-10T16:05:35;100.47;;;44.40;;
20589;SDS011;10453;50.810;12.540;2024-01-10T16:09:53;96.97;;;44.17;;
20589;SDS011;10453;50.810;12.540;2024-01-10T16:14:12;98.72;;;42.90;;
20589;SDS011;10453;50.810;12.540;2024-01-10T16:18:37;101.63;;;44.47;;
20589;SDS011;10453;50.810;12.540;2024-01-10T16:22:55;111.53;;;47.67;;
20589;SDS011;10453;50.810;12.540;2024-01-10T16:31:30;97.22;;;41.95;;
20589;SDS011;10453;50.810;12.540;2024-01-10T16:35:48;89.70;;;40.67;;
20589;SDS011;10453;50.810;12.540;2024-01-10T16:40:08;90.10;;;41.55;;
20589;SDS011;10453;50.810;12.540;2024-01-10T16:44:26;101.00;;;44.13;;
20589;SDS011;10453;50.810;12.540;2024-01-10T16:48:48;103.63;;;43.08;;
20589;SDS011;10453;50.810;12.540;2024-01-10T16:53:06;109.00;;;46.17;;
20589;SDS011;10453;50.810;12.540;2024-01-10T16:57:25;97.70;;;41.70;;
20589;SDS011;10453;50.810;12.540;2024-01-10T17:01:43;97.85;;;42.33;;
20589;SDS011;10453;50.810;12.540;2024-01-10T17:06:07;98.85;;;41.53;;
20589;SDS011;10453;50.810;12.540;2024-01-10T17:10:33;103.35;;;42.42;;
20589;SDS011;10453;50.810;12.540;2024-01-10T17:14:51;107.85;;;42.72;;
20589;SDS011;10453;50.810;12.540;2024-01-10T17:23:27;106.27;;;41.73;;
20589;SDS011;10453;50.810;12.540;2024-01-10T17:27:46;104.60;;;42.58;;
20589;SDS011;10453;50.810;12.540;2024-01-10T17:32:05;114.10;;;45.25;;
20589;SDS011;10453;50.810;12.540;2024-01-10T17:36:23;111.88;;;44.42;;
20589;SDS011;10453;50.810;12.540;2024-01-10T17:40:42;114.47;;;46.72;;
20589;SDS011;10453;50.810;12.540;2024-01-10T17:45:01;121.15;;;48.30;;
20589;SDS011;10453;50.810;12.540;2024-01-10T17:49:21;125.68;;;49.15;;
20589;SDS011;10453;50.810;12.540;2024-01-10T17:53:39;125.75;;;49.72;;
20589;SDS011;10453;50.810;12.540;2024-01-10T17:57:57;145.02;;;53.30;;
20589;SDS011;10453;50.810;12.540;2024-01-10T18:02:15;118.93;;;46.75;;
20589;SDS011;10453;50.810;12.540;2024-01-10T18:06:33;135.18;;;51.45;;
20589;SDS011;10453;50.810;12.540;2024-01-10T18:10:53;131.80;;;51.13;;
20589;SDS011;10453;50.810;12.540;2024-01-10T18:15:12;118.50;;;48.83;;
20589;SDS011;10453;50.810;12.540;2024-01-10T18:23:53;125.57;;;50.83;;
20589;SDS011;10453;50.810;12.540;2024-01-10T18:28:14;118.55;;;45.95;;
20589;SDS011;10453;50.810;12.540;2024-01-10T18:32:32;120.97;;;47.42;;
20589;SDS011;10453;50.810;12.540;2024-01-10T18:36:51;119.72;;;48.63;;
20589;SDS011;10453;50.810;12.540;2024-01-10T18:41:08;118.38;;;47.47;;
20589;SDS011;10453;50.810;12.540;2024-01-10T18:45:27;116.38;;;46.95;;
20589;SDS011;10453;50.810;12.540;2024-01-10T18:49:44;114.97;;;45.92;;
20589;SDS011;10453;50.810;12.540;2024-01-10T18:54:04;117.95;;;46.33;;
20589;SDS011;10453;50.810;12.540;2024-01-10T18:58:25;113.47;;;46.60;;
20589;SDS011;10453;50.810;12.540;2024-01-10T19:02:44;121.25;;;44.30;;
20589;SDS011;10453;50.810;12.540;2024-01-10T19:07:07;109.53;;;43.58;;
20589;SDS011;10453;50.810;12.540;2024-01-10T19:11:25;137.18;;;48.65;;
20589;SDS011;10453;50.810;12.540;2024-01-10T19:15:44;108.47;;;43.55;;
20589;SDS011;10453;50.810;12.540;2024-01-10T19:20:04;120.20;;;45.45;;
20589;SDS011;10453;50.810;12.540;2024-01-10T19:24:28;108.60;;;42.95;;
20589;SDS011;10453;50.810;12.540;2024-01-10T19:28:46;120.28;;;46.17;;
20589;SDS011;10453;50.810;12.540;2024-01-10T19:33:07;108.35;;;44.25;;
20589;SDS011;10453;50.810;12.540;2024-01-10T19:37:30;116.18;;;46.55;;
20589;SDS011;10453;50.810;12.540;2024-01-10T19:41:53;111.45;;;42.97;;
20589;SDS011;10453;50.810;12.540;2024-01-10T19:46:14;115.60;;;44.78;;
20589;SDS011;10453;50.810;12.540;2024-01-10T19:50:34;108.80;;;43.50;;
20589;SDS011;10453;50.810;12.540;2024-01-10T19:54:57;114.40;;;43.35;;
20589;SDS011;10453;50.810;12.540;2024-01-10T19:59:17;118.60;;;44.40;;
20589;SDS011;10453;50.810;12.540;2024-01-10T20:03:36;111.25;;;43.13;;
20589;SDS011;10453;50.810;12.540;2024-01-10T20:07:55;104.53;;;42.50;;
20589;SDS011;10453;50.810;12.540;2024-01-10T20:12:15;113.32;;;42.85;;
20589;SDS011;10453;50.810;12.540;2024-01-10T20:16:33;111.03;;;44.85;;
20589;SDS011;10453;50.810;12.540;2024-01-10T20:20:51;119.97;;;47.00;;
20589;SDS011;10453;50.810;12.540;2024-01-10T20:25:10;119.93;;;45.92;;
20589;SDS011;10453;50.810;12.540;2024-01-10T20:29:29;112.55;;;44.80;;
20589;SDS011;10453;50.810;12.540;2024-01-10T20:33:50;109.80;;;43.05;;
20589;SDS011;10453;50.810;12.540;2024-01-10T20:38:09;105.18;;;42.55;;
20589;SDS011;10453;50.810;12.540;2024-01-10T20:42:27;102.40;;;40.25;;
20589;SDS011;10453;50.810;12.540;2024-01-10T20:46:47;108.72;;;42.25;;
20589;SDS011;10453;50.810;12.540;2024-01-10T20:51:07;113.65;;;44.10;;
20589;SDS011;10453;50.810;12.540;2024-01-10T20:55:24;113.22;;;43.92;;
20589;SDS011;10453;50.810;12.540;2024-01-10T20:59:43;119.95;;;43.28;;
20589;SDS011;10453;50.810;12.540;2024-01-10T21:04:03;104.35;;;42.67;;
20589;SDS011;10453;50.810;12.540;2024-01-10T21:08:22;118.40;;;46.30;;
20589;SDS011;10453;50.810;12.540;2024-01-10T21:12:41;104.45;;;40.28;;
20589;SDS011;10453;50.810;12.540;2024-01-10T21:16:59;114.70;;;43.83;;
20589;SDS011;10453;50.810;12.540;2024-01-10T21:21:16;115.13;;;45.95;;
20589;SDS011;10453;50.810;12.540;2024-01-10T21:25:35;118.75;;;44.92;;
20589;SDS011;10453;50.810;12.540;2024-01-10T21:29:54;102.47;;;41.22;;
20589;SDS011;10453;50.810;12.540;2024-01-10T21:34:13;111.25;;;41.97;;
20589;SDS011;10453;50.810;12.540;2024-01-10T21:38:35;108.13;;;43.15;;
20589;SDS011;10453;50.810;12.540;2024-01-10T21:42:54;121.10;;;46.20;;
20589;SDS011;10453;50.810;12.540;2024-01-10T21:47:13;109.80;;;43.80;;
20589;SDS011;10453;50.810;12.540;2024-01-10T21:51:32;110.75;;;44.13;;
20589;SDS011;10453;50.810;12.540;2024-01-10T21:55:50;117.68;;;45.38;;
20589;SDS011;10453;50.810;12.540;2024-01-10T22:00:10;113.20;;;41.03;;
20589;SDS011;10453;50.810;12.540;2024-01-10T22:04:29;116.57;;;43.05;;
20589;SDS011;10453;50.810;12.540;2024-01-10T22:08:52;113.70;;;43.47;;
20589;SDS011;10453;50.810;12.540;2024-01-10T22:13:10;113.95;;;43.83;;
20589;SDS011;10453;50.810;12.540;2024-01-10T22:17:29;119.15;;;46.67;;
20589;SDS011;10453;50.810;12.540;2024-01-10T22:21:47;115.75;;;43.72;;
20589;SDS011;10453;50.810;12.540;2024-01-10T22:26:05;131.93;;;45.80;;
20589;SDS011;10453;50.810;12.540;2024-01-10T22:30:23;111.22;;;43.05;;
20589;SDS011;10453;50.810;12.540;2024-01-10T22:34:42;122.15;;;44.28;;
20589;SDS011;10453;50.810;12.540;2024-01-10T22:39:00;109.90;;;43.25;;
20589;SDS011;10453;50.810;12.540;2024-01-10T22:43:19;114.10;;;44.28;;
20589;SDS011;10453;50.810;12.540;2024-01-10T22:47:37;117.43;;;44.60;;
20589;SDS011;10453;50.810;12.540;2024-01-10T22:51:56;103.47;;;40.78;;
20589;SDS011;10453;50.810;12.540;2024-01-10T22:56:14;114.30;;;43.60;;
20589;SDS011;10453;50.810;12.540;2024-01-10T23:00:32;115.15;;;43.38;;
20589;SDS011;10453;50.810;12.540;2024-01-10T23:04:52;115.32;;;47.40;;
20589;SDS011;10453;50.810;12.540;2024-01-10T23:09:10;114.82;;;43.90;;
20589;SDS011;10453;50.810;12.540;2024-01-10T23:13:31;119.90;;;45.67;;
20589;SDS011;10453;50.810;12.540;2024-01-10T23:17:49;129.23;;;45.85;;
20589;SDS011;10453;50.810;12.540;2024-01-10T23:22:07;121.05;;;45.20;;
20589;SDS011;10453;50.810;12.540;2024-01-10T23:26:26;106.25;;;42.67;;
20589;SDS011;10453;50.810;12.540;2024-01-10T23:30:43;113.18;;;44.65;;
20589;SDS011;10453;50.810;12.540;2024-01-10T23:35:01;121.75;;;44.13;;
20589;SDS011;10453;50.810;12.540;2024-01-10T23:39:20;124.45;;;44.70;;
20589;SDS011;10453;50.810;12.540;2024-01-10T23:43:38;116.30;;;43.80;;
20589;SDS011;10453;50.810;12.540;2024-01-10T23:47:55;116.28;;;45.03;;
20589;SDS011;10453;50.810;12.540;2024-01-10T23:52:14;124.88;;;45.40;;
20589;SDS011;10453;50.810;12.540;2024-01-10T23:56:32;122.13;;;45.67;;
